Time;durP1;ratioP1;P1;durP2;ratioP2;P2;SDS_P1;SDS_P2;PMS_P1;PMS_P2;Temp;Humidity;BMP_temperature;BMP_pressure;BME280_temperature;BME280_humidity;BME280_pressure;Samples;Min_cycle;Max_cycle;Signal;HPM_P1;HPM_P2
2022/02/09 00:02:37;;;;;;;1.10;0.70;;;9.70;99.90;;;;;;4994861;28;20129;-59
2022/02/09 00:04:53;;;;;;;1.40;0.93;;;9.80;99.90;;;;;;4992099;28;20069;-58
2022/02/09 00:07:29;;;;;;;3.03;0.70;;;9.80;99.90;;;;;;4992536;28;20123;-59
2022/02/09 00:09:56;;;;;;;2.15;0.63;;;9.80;99.90;;;;;;4994703;28;20475;-59
2022/02/09 00:12:31;;;;;;;1.80;0.70;;;9.80;99.90;;;;;;5002410;28;20081;-58
2022/02/09 00:15:53;;;;;;;1.55;0.70;;;9.80;99.90;;;;;;4987600;28;20085;-58
2022/02/09 00:28:33;;;;;;;1.75;0.70;;;9.90;99.90;;;;;;4991002;28;20141;-59
2022/02/09 01:38:53;;;;;;;1.70;0.98;;;10.00;99.90;;;;;;4992998;28;20955;-59
2022/02/09 01:57:45;;;;;;;1.23;0.60;;;10.00;99.90;;;;;;5004302;28;20149;-59
2022/02/09 02:00:12;;;;;;;2.80;0.90;;;10.00;99.90;;;;;;5005230;28;20456;-59
2022/02/09 02:02:40;;;;;;;3.75;1.20;;;10.00;99.90;;;;;;5001752;28;20136;-59
2022/02/09 02:05:07;;;;;;;1.02;0.52;;;10.00;99.90;;;;;;4992883;28;20123;-59
2022/02/09 02:07:51;;;;;;;1.55;0.63;;;10.00;99.90;;;;;;5004150;28;20077;-58
2022/02/09 02:10:24;;;;;;;;;;;10.00;99.90;;;;;;5006251;28;20100;-59
2022/02/09 02:12:57;;;;;;;2.03;0.82;;;10.10;99.90;;;;;;5007278;28;19968;-58
2022/02/09 02:18:03;;;;;;;4.57;0.82;;;10.10;99.90;;;;;;4991339;28;20065;-59
2022/02/09 03:12:10;;;;;;;0.65;0.38;;;10.20;99.90;;;;;;4986205;28;20085;-58
2022/02/09 03:15:44;;;;;;;0.60;0.35;;;10.20;99.90;;;;;;5005771;28;20140;-58
2022/02/09 03:17:37;;;;;;;0.85;0.30;;;10.20;99.90;;;;;;5005138;28;20140;-58
2022/02/09 03:20:18;;;;;;;1.13;0.90;;;10.20;99.90;;;;;;5005114;28;20218;-58
2022/02/09 03:30:58;;;;;;;0.98;0.60;;;10.10;99.90;;;;;;4994455;28;20084;-59
2022/02/09 03:47:18;;;;;;;0.38;0.20;;;9.90;99.90;;;;;;5004765;28;20070;-58
2022/02/09 03:55:11;;;;;;;0.30;0.20;;;9.90;99.90;;;;;;5005187;28;20085;-58
2022/02/09 03:57:47;;;;;;;0.20;0.20;;;9.90;99.90;;;;;;4996353;28;20165;-59
2022/02/09 04:00:24;;;;;;;0.70;0.40;;;9.90;99.90;;;;;;4989798;28;20082;-59
2022/02/09 04:02:57;;;;;;;0.50;0.30;;;9.90;99.90;;;;;;4997104;28;20379;-59
2022/02/09 04:05:25;;;;;;;;;;;9.90;99.90;;;;;;5005717;28;20152;-58
2022/02/09 04:07:52;;;;;;;0.20;0.20;;;9.90;99.90;;;;;;5006010;28;19978;-58
2022/02/09 04:10:24;;;;;;;2.40;0.60;;;9.90;99.90;;;;;;5005469;28;20536;-58
2022/02/09 04:13:05;;;;;;;0.95;0.52;;;9.90;99.90;;;;;;5001559;28;20119;-58
2022/02/09 04:18:21;;;;;;;1.02;0.30;;;9.80;99.90;;;;;;5005310;28;20145;-58
2022/02/09 04:37:50;;;;;;;0.90;0.40;;;9.90;99.90;;;;;;5005990;28;20104;-58
2022/02/09 04:40:44;;;;;;;1.67;0.50;;;9.90;99.90;;;;;;5003307;28;20070;-58
2022/02/09 04:48:34;;;;;;;0.55;0.30;;;9.80;99.90;;;;;;4985651;28;20162;-59
2022/02/09 04:59:14;;;;;;;0.73;0.30;;;9.80;99.90;;;;;;5004056;28;20128;-58
2022/02/09 05:28:43;;;;;;;0.50;0.20;;;9.70;99.90;;;;;;5007188;28;20072;-58
2022/02/09 05:31:10;;;;;;;0.45;0.30;;;9.70;99.90;;;;;;5008413;28;20092;-59
2022/02/09 05:33:37;;;;;;;0.75;0.30;;;9.70;99.90;;;;;;5002079;28;20138;-59
2022/02/09 05:36:04;;;;;;;0.93;0.30;;;9.70;99.90;;;;;;4992165;28;20141;-59
2022/02/09 05:38:31;;;;;;;0.85;0.30;;;9.70;99.90;;;;;;4997537;28;20128;-58
2022/02/09 05:40:57;;;;;;;0.40;0.40;;;9.60;99.90;;;;;;5007912;28;20046;-59
2022/02/09 05:43:26;;;;;;;0.30;0.30;;;9.70;99.90;;;;;;5006634;28;20129;-59
2022/02/09 05:53:53;;;;;;;0.33;0.30;;;9.70;99.90;;;;;;5003294;28;20125;-59
2022/02/09 05:58:51;;;;;;;0.45;0.40;;;9.60;99.90;;;;;;4986299;28;20467;-59
2022/02/09 06:01:17;;;;;;;0.22;0.20;;;9.50;99.90;;;;;;4999089;28;20820;-59
2022/02/09 06:03:44;;;;;;;0.20;0.20;;;9.50;99.90;;;;;;4994133;28;20058;-59
2022/02/09 06:06:11;;;;;;;0.40;0.38;;;9.40;99.90;;;;;;5003207;28;20446;-59
2022/02/09 06:08:38;;;;;;;0.98;0.40;;;9.30;99.90;;;;;;5005424;28;20136;-58
2022/02/09 06:11:25;;;;;;;1.63;0.60;;;9.30;99.90;;;;;;4999995;28;20513;-58
2022/02/09 06:22:04;;;;;;;1.27;0.50;;;9.10;99.90;;;;;;4987912;28;20132;-59
2022/02/09 06:24:31;;;;;;;0.70;0.40;;;9.00;99.90;;;;;;4990647;28;20141;-59
2022/02/09 06:26:57;;;;;;;0.90;0.40;;;8.90;99.90;;;;;;4983625;28;20078;-59
2022/02/09 06:29:24;;;;;;;0.63;0.40;;;8.90;99.90;;;;;;4985885;28;20088;-59
2022/02/09 06:31:51;;;;;;;0.93;0.45;;;8.80;99.90;;;;;;4986937;28;20145;-58
2022/02/09 06:34:20;;;;;;;0.43;0.32;;;8.80;99.90;;;;;;5000387;28;20074;-59
2022/02/09 06:36:55;;;;;;;1.15;0.45;;;8.70;99.90;;;;;;4990233;28;20177;-59
2022/02/09 06:39:22;;;;;;;2.22;0.70;;;8.70;99.90;;;;;;4998034;28;20544;-59
2022/02/09 06:41:48;;;;;;;0.50;0.40;;;8.70;99.90;;;;;;4986024;28;20092;-59
2022/02/09 06:44:15;;;;;;;1.23;0.70;;;8.60;99.90;;;;;;4998273;28;20139;-59
2022/02/09 06:46:42;;;;;;;1.45;0.65;;;8.60;99.90;;;;;;4996850;28;20136;-59
2022/02/09 06:49:09;;;;;;;1.25;0.50;;;8.60;99.90;;;;;;4998688;28;20585;-59
2022/02/09 06:51:38;;;;;;;0.88;0.47;;;8.60;99.90;;;;;;4995545;28;20145;-59
2022/02/09 06:54:16;;;;;;;1.88;0.70;;;8.60;99.90;;;;;;4991841;28;20054;-58
2022/02/09 06:59:31;;;;;;;1.42;0.60;;;8.70;99.90;;;;;;4994347;28;20546;-59
2022/02/09 07:02:02;;;;;;;1.20;0.68;;;8.80;99.90;;;;;;4993058;28;20172;-59
2022/02/09 07:04:29;;;;;;;0.75;0.55;;;8.80;99.90;;;;;;4989138;28;20081;-58
2022/02/09 07:06:56;;;;;;;1.13;0.60;;;8.80;99.90;;;;;;4995303;28;20081;-58
2022/02/09 07:09:23;;;;;;;0.93;0.50;;;8.80;99.90;;;;;;4993440;28;20534;-59
2022/02/09 07:11:51;;;;;;;1.15;0.60;;;8.80;99.90;;;;;;4992237;28;20520;-59
2022/02/09 07:14:22;;;;;;;2.38;0.50;;;8.80;99.90;;;;;;4996452;28;20157;-58
2022/02/09 07:16:49;;;;;;;1.17;0.60;;;8.80;99.90;;;;;;4988419;28;20069;-59
2022/02/09 07:19:15;;;;;;;1.38;0.80;;;8.90;99.90;;;;;;4997737;28;20450;-59
2022/02/09 07:21:42;;;;;;;0.80;0.40;;;8.90;99.90;;;;;;4990921;28;20072;-58
2022/02/09 07:24:14;;;;;;;1.70;0.80;;;8.90;99.90;;;;;;4994471;28;20297;-58
2022/02/09 07:26:48;;;;;;;1.15;0.43;;;8.90;99.90;;;;;;4987610;28;20178;-58
2022/02/09 07:29:16;;;;;;;1.58;0.73;;;8.80;99.90;;;;;;4996809;28;20145;-57
2022/02/09 07:31:44;;;;;;;1.30;0.50;;;8.90;99.90;;;;;;4991392;28;20097;-58
2022/02/09 07:34:11;;;;;;;0.52;0.40;;;8.80;99.90;;;;;;4997478;28;20052;-58
2022/02/09 07:36:39;;;;;;;0.52;0.40;;;8.80;99.90;;;;;;4997384;28;20141;-58
2022/02/09 07:39:06;;;;;;;0.70;0.43;;;8.80;99.90;;;;;;4996832;28;20107;-58
2022/02/09 07:41:35;;;;;;;0.98;0.40;;;8.80;99.90;;;;;;4982719;28;20550;-58
2022/02/09 07:44:15;;;;;;;1.27;0.70;;;8.80;99.90;;;;;;4987929;28;20046;-58
2022/02/09 07:49:37;;;;;;;0.43;0.35;;;8.80;99.90;;;;;;4995246;28;20489;-58
2022/02/09 07:52:12;;;;;;;1.50;0.50;;;8.80;99.90;;;;;;4980815;28;20414;-59
2022/02/09 07:54:39;;;;;;;1.17;0.40;;;8.80;99.90;;;;;;4984966;28;20074;-58
2022/02/09 07:57:07;;;;;;;0.52;0.50;;;8.80;99.90;;;;;;4989773;28;20072;-58
2022/02/09 07:59:33;;;;;;;0.38;0.28;;;8.80;99.90;;;;;;4985290;28;20125;-58
2022/02/09 08:02:00;;;;;;;0.80;0.43;;;8.80;99.90;;;;;;4989281;28;20156;-58
2022/02/09 08:04:27;;;;;;;1.35;0.60;;;8.80;99.90;;;;;;4986328;28;20100;-57
2022/02/09 08:06:54;;;;;;;0.77;0.57;;;8.90;99.90;;;;;;4988994;28;20149;-58
2022/02/09 08:09:32;;;;;;;0.98;0.70;;;8.90;99.90;;;;;;4990525;28;20137;-58
2022/02/09 08:12:48;;;;;;;1.17;0.50;;;9.00;99.90;;;;;;4987884;28;20469;-58
2022/02/09 08:20:33;;;;;;;2.88;0.73;;;9.30;99.90;;;;;;4990652;28;20160;-58
2022/02/09 08:26:13;;;;;;;1.48;0.52;;;9.50;99.90;;;;;;4989551;28;20137;-58
2022/02/09 08:33:44;;;;;;;0.80;0.45;;;9.80;99.90;;;;;;4996140;28;20093;-59
2022/02/09 08:36:11;;;;;;;0.52;0.43;;;9.80;99.90;;;;;;4991722;28;20180;-58
2022/02/09 08:38:39;;;;;;;0.82;0.50;;;9.80;99.90;;;;;;4990232;28;20149;-58
2022/02/09 08:41:05;;;;;;;1.55;0.50;;;9.80;99.90;;;;;;4998047;28;20152;-58
2022/02/09 08:43:32;;;;;;;1.60;0.60;;;9.80;99.90;;;;;;4993019;28;20085;-58
2022/02/09 08:45:59;;;;;;;2.40;0.70;;;9.80;99.90;;;;;;4998706;28;20172;-58
2022/02/09 08:48:26;;;;;;;2.08;0.70;;;9.90;99.90;;;;;;4998618;28;20050;-58
2022/02/09 08:50:52;;;;;;;1.77;0.90;;;9.90;99.90;;;;;;5002007;28;20220;-58
2022/02/09 08:53:19;;;;;;;1.48;0.63;;;10.00;99.90;;;;;;5001697;28;20061;-58
2022/02/09 08:55:46;;;;;;;0.60;0.40;;;10.00;99.90;;;;;;5002672;28;20136;-58
2022/02/09 08:58:15;;;;;;;2.22;0.75;;;10.00;99.90;;;;;;5003151;28;20373;-58
2022/02/09 09:00:42;;;;;;;3.00;0.73;;;10.10;99.90;;;;;;5000708;28;20588;-58
2022/02/09 09:03:18;;;;;;;2.38;0.95;;;10.20;99.90;;;;;;4997687;28;20458;-57
2022/02/09 09:05:50;;;;;;;2.15;0.63;;;10.20;99.90;;;;;;5001057;28;20102;-55
2022/02/09 09:57:58;;;;;;;1.40;0.70;;;11.00;99.90;;;;;;4998145;28;20128;-58
2022/02/09 09:58:04;;;;;;;0.93;0.57;;;11.20;99.90;;;;;;5021610;28;20223;-58
2022/02/09 10:04:17;;;;;;;2.15;0.60;;;11.20;99.90;;;;;;5001212;28;20054;-58
2022/02/09 10:34:21;;;;;;;2.47;0.63;;;11.50;99.90;;;;;;4986625;28;20060;-58
2022/02/09 10:36:59;;;;;;;1.92;0.80;;;11.70;99.90;;;;;;4988418;28;20136;-58
2022/02/09 10:39:46;;;;;;;3.05;1.52;;;11.80;99.90;;;;;;4992689;28;20050;-58
2022/02/09 10:44:48;;;;;;;2.65;0.73;;;12.00;99.90;;;;;;4986686;28;20092;-57
2022/02/09 10:47:20;;;;;;;1.67;0.73;;;12.10;99.90;;;;;;4989305;28;20297;-58
2022/02/09 10:50:26;;;;;;;2.75;0.60;;;12.30;99.90;;;;;;4997672;28;20181;-57
2022/02/09 10:52:53;;;;;;;1.95;0.82;;;12.40;99.90;;;;;;4987045;28;20133;-58
2022/02/09 10:55:42;;;;;;;1.35;0.60;;;12.60;99.90;;;;;;4998613;28;20144;-58
2022/02/09 10:58:21;;;;;;;1.15;0.50;;;12.70;99.90;;;;;;4989528;28;20594;-58
2022/02/09 11:00:48;;;;;;;1.55;0.70;;;12.80;99.90;;;;;;4984787;28;20646;-59
2022/02/09 11:03:21;;;;;;;1.15;0.70;;;13.00;99.90;;;;;;4993847;28;21746;-58
2022/02/09 11:05:49;;;;;;;0.90;0.40;;;13.20;99.90;;;;;;4996794;28;20168;-58
2022/02/09 11:08:16;;;;;;;1.90;0.75;;;13.30;99.90;;;;;;4988379;28;20164;-58
2022/02/09 11:10:43;;;;;;;3.60;1.00;;;13.30;99.90;;;;;;4986580;28;20066;-58
2022/02/09 11:13:11;;;;;;;1.45;0.80;;;13.40;99.90;;;;;;4992352;28;20125;-58
2022/02/09 11:15:41;;;;;;;3.92;0.98;;;13.50;99.90;;;;;;4981707;28;20058;-58
2022/02/09 11:18:15;;;;;;;1.95;1.23;;;13.50;99.90;;;;;;4993652;28;20284;-59
2022/02/09 11:21:02;;;;;;;1.30;0.73;;;13.60;99.90;;;;;;4987567;28;20125;-58
2022/02/09 11:23:56;;;;;;;1.60;0.90;;;13.80;99.90;;;;;;4996670;28;20054;-59
2022/02/09 11:26:41;;;;;;;1.95;0.63;;;13.80;99.90;;;;;;4996979;28;20045;-58
2022/02/09 11:32:12;;;;;;;2.33;0.50;;;13.80;99.90;;;;;;4996502;28;20058;-59
2022/02/09 11:35:27;;;;;;;1.03;0.50;;;13.60;99.90;;;;;;5008972;28;20130;-59
2022/02/09 12:11:26;;;;;;;0.75;0.43;;;14.40;99.90;;;;;;4993778;28;20480;-60
2022/02/09 12:14:00;;;;;;;2.08;0.60;;;14.40;99.90;;;;;;4999261;28;20401;-59
2022/02/09 12:16:45;;;;;;;1.92;0.90;;;14.40;99.90;;;;;;5002405;28;20129;-59
2022/02/09 12:19:24;;;;;;;2.08;1.00;;;14.30;99.90;;;;;;4995012;28;20058;-60
2022/02/09 12:24:22;;;;;;;3.00;0.90;;;14.20;99.90;;;;;;5001092;28;20089;-59
2022/02/09 12:27:02;;;;;;;1.30;0.70;;;14.20;99.90;;;;;;4989625;28;20093;-59
2022/02/09 12:29:30;;;;;;;1.88;0.60;;;14.20;99.90;;;;;;4981833;28;20101;-59
2022/02/09 12:31:57;;;;;;;1.50;0.70;;;14.50;99.90;;;;;;5009218;28;20141;-59
2022/02/09 12:34:26;;;;;;;1.83;0.70;;;14.80;99.90;;;;;;5000673;28;20077;-59
2022/02/09 12:36:52;;;;;;;1.63;0.73;;;14.90;99.90;;;;;;5016732;28;20088;-59
2022/02/09 12:39:19;;;;;;;2.13;0.90;;;15.00;99.90;;;;;;5018680;28;20080;-59
2022/02/09 12:41:47;;;;;;;2.42;1.13;;;15.10;99.90;;;;;;4996522;28;20081;-59
2022/02/09 12:44:21;;;;;;;1.60;0.80;;;15.10;99.90;;;;;;4996578;28;20626;-56
2022/02/09 12:46:48;;;;;;;3.08;0.68;;;15.10;99.90;;;;;;4997386;28;20128;-59
2022/02/09 12:49:18;;;;;;;1.05;0.60;;;15.00;99.90;;;;;;4992509;28;20078;-59
2022/02/09 12:51:47;;;;;;;0.85;0.47;;;15.00;99.90;;;;;;4995652;28;20053;-59
2022/02/09 12:54:15;;;;;;;2.47;0.63;;;15.00;99.90;;;;;;4992384;28;20085;-59
2022/02/09 12:56:47;;;;;;;2.20;0.93;;;15.00;99.90;;;;;;4990260;28;20152;-60
2022/02/09 12:59:16;;;;;;;1.52;0.75;;;15.10;99.90;;;;;;5017261;28;20085;-60
2022/02/09 13:01:43;;;;;;;1.38;0.88;;;15.40;99.90;;;;;;4995309;28;20096;-59
2022/02/09 13:04:10;;;;;;;1.92;0.82;;;15.50;99.90;;;;;;4989472;28;20692;-59
2022/02/09 13:06:37;;;;;;;1.58;0.90;;;15.60;99.90;;;;;;5012173;28;20123;-59
2022/02/09 13:09:04;;;;;;;2.05;0.70;;;15.80;99.90;;;;;;4987327;28;20169;-59
2022/02/09 13:11:33;;;;;;;1.77;0.80;;;15.90;99.90;;;;;;5002138;28;20058;-59
2022/02/09 13:14:46;;;;;;;1.55;0.80;;;16.00;99.90;;;;;;5002921;28;20164;-59
2022/02/09 13:25:26;;;;;;;2.00;0.90;;;15.20;99.90;;;;;;4994993;28;20117;-59
2022/02/09 14:18:28;;;;;;;1.83;0.90;;;15.00;99.90;;;;;;4996237;28;20120;-58
2022/02/09 14:56:13;;;;;;;1.45;0.65;;;13.70;99.90;;;;;;5017893;28;20144;-66
2022/02/09 14:58:44;;;;;;;1.90;0.90;;;13.60;99.90;;;;;;5006883;28;20168;-60
2022/02/09 15:01:32;;;;;;;1.65;0.77;;;13.60;99.90;;;;;;5002449;28;20506;-58
2022/02/09 15:09:36;;;;;;;1.88;0.63;;;13.40;99.90;;;;;;4987854;28;20062;-57
2022/02/09 15:12:16;;;;;;;0.80;0.60;;;13.40;99.90;;;;;;4985135;28;20502;-58
2022/02/09 15:17:39;;;;;;;1.23;0.50;;;13.30;99.90;;;;;;4996313;28;20104;-56
2022/02/09 15:22:36;;;;;;;2.35;0.52;;;13.30;99.90;;;;;;4985455;28;20051;-58
2022/02/09 15:25:11;;;;;;;3.35;0.80;;;13.30;99.90;;;;;;5002595;28;20064;-58
2022/02/09 15:27:38;;;;;;;1.30;0.70;;;13.20;99.90;;;;;;5002872;28;20096;-58
2022/02/09 15:30:06;;;;;;;1.20;0.60;;;13.30;99.90;;;;;;5001556;28;21510;-58
2022/02/09 15:32:48;;;;;;;0.95;0.65;;;13.20;99.90;;;;;;5002730;28;20085;-58
2022/02/09 15:35:32;;;;;;;1.45;0.80;;;13.20;99.90;;;;;;5001824;28;20050;-58
2022/02/09 15:38:14;;;;;;;5.68;3.60;;;13.20;99.90;;;;;;5002857;28;20104;-58
2022/02/09 16:19:43;;;;;;;1.30;0.55;;;13.00;99.90;;;;;;4999319;28;20085;-59
2022/02/09 16:24:25;;;;;;;1.38;0.70;;;13.00;99.90;;;;;;4998517;28;20136;-58
2022/02/09 16:46:14;;;;;;;1.50;0.68;;;12.70;99.90;;;;;;4997831;28;20081;-58
2022/02/09 16:48:41;;;;;;;1.38;0.70;;;12.70;99.90;;;;;;4997783;28;20344;-58
2022/02/09 16:51:13;;;;;;;;;;;12.70;99.90;;;;;;4998621;28;20164;-58
2022/02/09 17:20:53;;;;;;;3.92;1.20;;;12.40;99.90;;;;;;4999862;28;20164;-58
2022/02/09 17:23:20;;;;;;;2.42;1.17;;;12.40;99.90;;;;;;5001236;28;20524;-57
2022/02/09 17:25:46;;;;;;;1.42;0.98;;;12.40;99.90;;;;;;5001882;28;20137;-58
2022/02/09 17:28:16;;;;;;;1.52;0.93;;;12.30;99.90;;;;;;5002346;28;20592;-58
2022/02/09 17:30:59;;;;;;;1.80;1.00;;;12.30;99.90;;;;;;5000361;28;20161;-58
2022/02/09 17:57:46;;;;;;;1.10;0.60;;;12.20;99.90;;;;;;4991783;28;20081;-59
2022/02/09 18:00:16;;;;;;;2.30;0.90;;;12.20;99.90;;;;;;4991173;28;20064;-58
2022/02/09 18:02:48;;;;;;;1.13;0.80;;;12.20;99.90;;;;;;4991220;28;20655;-58
2022/02/09 18:05:22;;;;;;;2.47;0.90;;;12.10;99.90;;;;;;4994382;28;20080;-58
2022/02/09 18:07:54;;;;;;;2.00;0.82;;;12.20;99.90;;;;;;4990377;28;20818;-58
2022/02/09 18:10:44;;;;;;;2.97;0.80;;;12.20;99.90;;;;;;4992967;28;20177;-58
2022/02/09 18:42:58;;;;;;;1.30;0.90;;;12.10;99.90;;;;;;5006224;28;20042;-57
2022/02/09 18:45:46;;;;;;;1.65;1.00;;;12.00;99.90;;;;;;4999615;28;20421;-58
2022/02/09 18:48:47;;;;;;;1.30;0.93;;;11.90;99.90;;;;;;4997346;28;20124;-58
2022/02/09 19:04:38;;;;;;;2.00;0.95;;;11.60;99.90;;;;;;4990063;28;20932;-58
2022/02/09 19:07:32;;;;;;;2.35;1.20;;;11.50;99.90;;;;;;4991228;28;20046;-58
2022/02/09 19:31:24;;;;;;;2.85;1.40;;;10.90;99.90;;;;;;4994864;28;20160;-60
2022/02/09 19:47:06;;;;;;;1.23;0.75;;;10.70;99.90;;;;;;4987111;28;20139;-59
2022/02/09 19:57:10;;;;;;;2.00;1.23;;;10.70;99.90;;;;;;5011895;28;20124;-58
2022/02/09 19:59:39;;;;;;;1.80;1.10;;;10.70;99.90;;;;;;5017582;28;20100;-59
2022/02/09 20:02:08;;;;;;;2.47;1.30;;;10.70;99.90;;;;;;4998934;28;20481;-59
2022/02/09 20:04:35;;;;;;;1.80;0.90;;;10.70;99.90;;;;;;4996206;28;20108;-60
2022/02/09 20:07:02;;;;;;;3.20;1.25;;;10.70;99.90;;;;;;4991079;28;20519;-60
2022/02/09 20:09:29;;;;;;;3.03;1.23;;;10.80;99.90;;;;;;4991889;28;20111;-59
2022/02/09 20:11:56;;;;;;;2.40;0.98;;;10.80;99.90;;;;;;4992832;28;20543;-59
2022/02/09 20:14:22;;;;;;;1.75;0.90;;;10.80;99.90;;;;;;4985837;28;20045;-59
2022/02/09 20:16:50;;;;;;;3.40;1.50;;;10.80;99.90;;;;;;4991523;28;20210;-59
2022/02/09 20:19:17;;;;;;;1.83;1.08;;;10.80;99.90;;;;;;4990658;28;20046;-60
2022/02/09 20:21:44;;;;;;;2.63;1.67;;;10.80;99.90;;;;;;4994644;28;20155;-59
2022/02/09 20:24:14;;;;;;;2.10;1.15;;;10.80;99.90;;;;;;4994304;28;20524;-59
2022/02/09 20:26:41;;;;;;;1.48;1.13;;;10.80;99.90;;;;;;4993230;28;20046;-59
2022/02/09 20:29:14;;;;;;;1.75;0.90;;;10.80;99.90;;;;;;4980973;28;21346;-60
2022/02/09 20:34:23;;;;;;;1.80;1.08;;;10.80;99.90;;;;;;4991412;28;21006;-59
2022/02/09 20:36:50;;;;;;;1.70;0.90;;;10.80;99.90;;;;;;4993856;28;20310;-60
2022/02/09 20:39:23;;;;;;;1.42;0.80;;;10.90;99.90;;;;;;4983694;28;20218;-59
2022/02/09 20:41:50;;;;;;;2.30;1.05;;;11.00;99.90;;;;;;4992288;28;20073;-59
2022/02/09 20:44:43;;;;;;;1.60;0.95;;;11.00;99.90;;;;;;4989126;28;20153;-59
2022/02/09 20:47:04;;;;;;;2.58;1.02;;;11.00;99.90;;;;;;5000042;28;20316;-58
2022/02/09 20:49:31;;;;;;;3.40;1.20;;;11.10;99.90;;;;;;4992283;28;20533;-57
2022/02/09 20:51:58;;;;;;;3.22;1.30;;;11.10;99.90;;;;;;4986669;28;20054;-60
2022/02/09 20:54:24;;;;;;;1.90;1.00;;;11.10;99.90;;;;;;4996827;28;20077;-58
2022/02/09 20:56:51;;;;;;;1.85;1.23;;;11.10;99.90;;;;;;4999229;28;20168;-60
2022/02/09 20:59:19;;;;;;;2.80;1.35;;;11.00;99.90;;;;;;4993975;28;20085;-57
2022/02/09 21:02:02;;;;;;;1.92;1.10;;;11.00;99.90;;;;;;5003496;28;20092;-58
2022/02/09 21:04:32;;;;;;;4.25;1.55;;;11.00;99.90;;;;;;4999345;28;20077;-58
2022/02/09 21:26:23;;;;;;;2.30;1.63;;;10.90;99.90;;;;;;5001507;28;20054;-58
2022/02/09 21:55:59;;;;;;;2.78;1.45;;;10.80;99.90;;;;;;4999494;28;20059;-58
2022/02/09 22:01:30;;;;;;;3.17;1.35;;;10.80;99.90;;;;;;5008120;28;20424;-60
2022/02/09 22:20:36;;;;;;;3.58;1.95;;;10.70;99.90;;;;;;5000851;28;20500;-58
2022/02/09 22:28:20;;;;;;;3.40;2.10;;;10.40;99.90;;;;;;5004527;28;20128;-58
2022/02/09 22:50:12;;;;;;;3.05;1.70;;;10.20;99.90;;;;;;5019876;28;20136;-58
2022/02/09 22:55:15;;;;;;;3.55;2.42;;;10.10;99.90;;;;;;5000825;28;20137;-58
2022/02/09 22:57:45;;;;;;;4.00;2.55;;;10.10;99.90;;;;;;5003331;28;20404;-58
2022/02/09 23:00:34;;;;;;;3.08;2.28;;;10.10;99.90;;;;;;5001058;28;20212;-58
2022/02/09 23:03:01;;;;;;;3.63;2.50;;;10.10;99.90;;;;;;5002475;28;20137;-58
2022/02/09 23:08:35;;;;;;;3.95;2.53;;;10.10;99.90;;;;;;5001669;28;20165;-58
2022/02/09 23:16:18;;;;;;;2.60;2.17;;;9.90;99.90;;;;;;5009987;28;20164;-58
2022/02/09 23:21:42;;;;;;;3.65;3.03;;;9.70;99.90;;;;;;5001707;28;20062;-58
